Weather History for KDVL - January, 2013

Change the Weather History Date:

Monday, January 7, 2013

  Actual Average Record
Temperature  
Mean Temperature 20 °F -  
Max Temperature 30 °F 10 °F 43 °F (1990)
Min Temperature 10 °F -6 °F -34 °F (1966)
Degree Days  
Heating Degree Days 45    
Moisture  
Dew Point 17 °F    
Average Humidity 75    
Maximum Humidity 93    
Minimum Humidity 64    
Precipitation  
Precipitation 0.00 in - - ()
Sea Level Pressure  
Sea Level Pressure 29.72 in    
Wind  
Wind Speed 18 mph (WSW)    
Max Wind Speed 25 mph    
Max Gust Speed 31 mph    
Visibility 10 miles    
Events      
Averages and records for this station are not official NWS values.
T = Trace of Precipitation, MM = Missing Value Source: NWS Daily Summary

Daily Weather History Graph

Daily Weather History Graph

Search for Another Location

Airport or City:

Trip Planner

Search our weather history database for the weather conditions in past years. The results will help you decide how hot, cold, wet, or windy it might be!

Date:

Astronomy

Jan. 07, 2013 Rise Set
Actual Time 8:24 AM CST 4:59 PM CST
Civil Twilight 7:49 AM CST 5:35 PM CST
Nautical Twilight 7:09 AM CST 6:14 PM CST
Astronomical Twilight 6:32 AM CST 6:52 PM CST
Moon 3:45 AM CST (1/7) 1:15 PM CST (1/7)
Length of Visible Light 9h 46m
Length of Day
8h 34m
Waning Crescent, 22% of the Moon is Illuminated
Jan 7
Waning Crescent
Jan 11
New
Jan 18
First Quarter
Jan 26
Full
Feb 3
Last Quarter

Hourly Weather History & Observations

Time (CST) Temp. Windchill Dew Point Humidity Pressure Visibility Wind Dir Wind Speed Gust Speed Precip Events Conditions
12:15 AM 26.6 °F 13.8 °F 19.4 °F 74% 29.62 in 10.0 mi WSW 17.3 mph - N/A   Mostly Cloudy
12:35 AM 28.4 °F 16.6 °F 19.4 °F 69% 29.61 in 10.0 mi WSW 16.1 mph - N/A   Overcast
12:55 AM 28.4 °F 16.6 °F 21.2 °F 74% 29.61 in 10.0 mi WSW 16.1 mph - N/A   Mostly Cloudy
1:15 AM 30.2 °F 17.8 °F 23.0 °F 75% 29.60 in 10.0 mi West 19.6 mph - N/A   Mostly Cloudy
1:35 AM 30.2 °F 17.8 °F 23.0 °F 75% 29.61 in 10.0 mi West 19.6 mph - N/A   Clear
1:55 AM 30.2 °F 18.1 °F 23.0 °F 75% 29.61 in 10.0 mi West 18.4 mph - N/A   Clear
2:15 AM 30.2 °F 17.8 °F 23.0 °F 75% 29.62 in 10.0 mi West 19.6 mph - N/A   Clear
2:35 AM 30.2 °F 17.8 °F 21.2 °F 69% 29.63 in 10.0 mi West 19.6 mph - N/A   Clear
2:55 AM 30.2 °F 17.4 °F 21.2 °F 69% 29.63 in 10.0 mi West 20.7 mph - N/A   Clear
3:15 AM 28.4 °F 15.4 °F 21.2 °F 74% 29.64 in 10.0 mi WSW 19.6 mph - N/A   Clear
3:35 AM 28.4 °F 15.4 °F 21.2 °F 74% 29.63 in 10.0 mi WSW 19.6 mph - N/A   Clear
3:55 AM 28.4 °F 15.4 °F 19.4 °F 69% 29.62 in 10.0 mi WSW 19.6 mph - N/A   Clear
4:15 AM 28.4 °F 15.4 °F 19.4 °F 69% 29.62 in 10.0 mi West 19.6 mph - N/A   Clear
4:35 AM 28.4 °F 14.1 °F 19.4 °F 69% 29.62 in 10.0 mi West 24.2 mph - N/A   Clear
4:55 AM 26.6 °F 12.4 °F 19.4 °F 74% 29.63 in 10.0 mi West 21.9 mph - N/A   Clear
5:15 AM 28.4 °F 13.8 °F 21.2 °F 74% 29.64 in 10.0 mi West 25.3 mph - N/A   Partly Cloudy
5:35 AM 26.6 °F 12.0 °F 21.2 °F 80% 29.64 in 10.0 mi West 23.0 mph - N/A   Partly Cloudy
5:55 AM 26.6 °F 13.4 °F 21.2 °F 80% 29.64 in 10.0 mi West 18.4 mph - N/A   Clear
6:15 AM 26.6 °F 13.1 °F 21.2 °F 80% 29.64 in 10.0 mi West 19.6 mph - N/A   Clear
6:35 AM 26.6 °F 13.1 °F 21.2 °F 80% 29.64 in 10.0 mi West 19.6 mph - N/A   Clear
6:55 AM 26.6 °F 13.1 °F 19.4 °F 74% 29.64 in 10.0 mi West 19.6 mph - N/A   Clear
7:15 AM 26.6 °F 12.0 °F 19.4 °F 74% 29.65 in 10.0 mi West 23.0 mph - N/A   Clear
7:35 AM 26.6 °F 11.7 °F 19.4 °F 74% 29.65 in 10.0 mi West 24.2 mph - N/A   Clear
7:55 AM 26.6 °F 13.1 °F 19.4 °F 74% 29.65 in 10.0 mi WSW 19.6 mph - N/A   Clear
8:15 AM 24.8 °F 9.6 °F 19.4 °F 80% 29.65 in 10.0 mi West 23.0 mph - N/A   Clear
8:35 AM 24.8 °F 10.0 °F 17.6 °F 74% 29.66 in 10.0 mi WSW 21.9 mph - N/A   Clear
8:55 AM 24.8 °F 10.7 °F 17.6 °F 74% 29.67 in 10.0 mi WSW 19.6 mph - N/A   Clear
9:15 AM 24.8 °F 10.0 °F 17.6 °F 74% 29.68 in 10.0 mi West 21.9 mph 27.6 mph N/A   Clear
9:35 AM 26.6 °F 11.4 °F 17.6 °F 69% 29.69 in 10.0 mi West 25.3 mph - N/A   Clear
9:55 AM 26.6 °F 11.7 °F 17.6 °F 69% 29.70 in 10.0 mi West 24.2 mph - N/A   Clear
10:15 AM 26.6 °F 11.7 °F 17.6 °F 69% 29.71 in 10.0 mi West 24.2 mph - N/A   Clear
10:35 AM 26.6 °F 11.4 °F 17.6 °F 69% 29.71 in 10.0 mi West 25.3 mph 31.1 mph N/A   Clear
10:55 AM 26.6 °F 11.4 °F 17.6 °F 69% 29.72 in 10.0 mi West 25.3 mph - N/A   Clear
11:15 AM 26.6 °F 11.7 °F 17.6 °F 69% 29.72 in 10.0 mi West 24.2 mph - N/A   Clear
11:35 AM 28.4 °F 13.8 °F 17.6 °F 64% 29.72 in 10.0 mi West 25.3 mph 29.9 mph N/A   Clear
11:55 AM 28.4 °F 14.1 °F 17.6 °F 64% 29.73 in 10.0 mi West 24.2 mph 27.6 mph N/A   Clear
12:15 PM 28.4 °F 14.4 °F 19.4 °F 69% 29.73 in 10.0 mi West 23.0 mph 29.9 mph N/A   Clear
12:35 PM 28.4 °F 14.1 °F 17.6 °F 64% 29.73 in 10.0 mi West 24.2 mph - N/A   Clear
12:55 PM 28.4 °F 15.4 °F 19.4 °F 69% 29.73 in 10.0 mi West 19.6 mph 26.5 mph N/A   Clear
1:15 PM 28.4 °F 15.1 °F 17.6 °F 64% 29.73 in 10.0 mi West 20.7 mph - N/A   Clear
1:35 PM 28.4 °F 14.7 °F 19.4 °F 69% 29.73 in 10.0 mi West 21.9 mph - N/A   Clear
1:55 PM 28.4 °F 15.1 °F 19.4 °F 69% 29.74 in 10.0 mi West 20.7 mph - N/A   Clear
2:15 PM 28.4 °F 15.1 °F 19.4 °F 69% 29.75 in 10.0 mi West 20.7 mph - N/A   Clear
2:35 PM 28.4 °F 16.2 °F 19.4 °F 69% 29.76 in 10.0 mi West 17.3 mph - N/A   Clear
2:55 PM 26.6 °F 13.1 °F 19.4 °F 74% 29.77 in 10.0 mi West 19.6 mph - N/A   Clear
3:15 PM 26.6 °F 13.1 °F 17.6 °F 69% 29.77 in 10.0 mi West 19.6 mph - N/A   Clear
3:35 PM 26.6 °F 15.2 °F 19.4 °F 74% 29.78 in 10.0 mi West 13.8 mph - N/A   Clear
3:55 PM 26.6 °F 16.2 °F 19.4 °F 74% 29.78 in 10.0 mi West 11.5 mph - N/A   Clear
4:15 PM 24.8 °F 13.4 °F 17.6 °F 74% 29.78 in 10.0 mi West 12.7 mph - N/A   Clear
4:35 PM 23.0 °F 11.1 °F 17.6 °F 80% 29.78 in 10.0 mi West 12.7 mph - N/A   Clear
4:55 PM 21.2 °F 9.5 °F 15.8 °F 80% 29.79 in 10.0 mi West 11.5 mph - N/A   Clear
5:15 PM 21.2 °F 10.9 °F 15.8 °F 80% 29.79 in 10.0 mi West 9.2 mph - N/A   Clear
5:35 PM 19.4 °F 7.2 °F 14.0 °F 80% 29.80 in 10.0 mi WSW 11.5 mph - N/A   Clear
5:55 PM 19.4 °F 7.9 °F 15.8 °F 86% 29.80 in 10.0 mi WSW 10.4 mph - N/A   Clear
6:15 PM 19.4 °F 6.6 °F 14.0 °F 80% 29.80 in 10.0 mi West 12.7 mph - N/A   Clear
6:35 PM 19.4 °F 6.6 °F 15.8 °F 86% 29.80 in 10.0 mi West 12.7 mph - N/A   Clear
6:55 PM 19.4 °F 7.2 °F 14.0 °F 80% 29.80 in 10.0 mi West 11.5 mph - N/A   Clear
7:15 PM 19.4 °F 7.2 °F 14.0 °F 80% 29.80 in 10.0 mi West 11.5 mph - N/A   Clear
7:35 PM 19.4 °F 7.2 °F 14.0 °F 80% 29.80 in 10.0 mi West 11.5 mph - N/A   Clear
7:55 PM 19.4 °F 7.9 °F 14.0 °F 80% 29.81 in 10.0 mi WSW 10.4 mph - N/A   Clear
8:15 PM 19.4 °F 7.2 °F 15.8 °F 86% 29.80 in 10.0 mi WSW 11.5 mph - N/A   Clear
8:35 PM 17.6 °F 6.4 °F 12.2 °F 79% 29.80 in 10.0 mi SW 9.2 mph - N/A   Clear
8:55 PM 17.6 °F 6.4 °F 12.2 °F 79% 29.81 in 10.0 mi WSW 9.2 mph - N/A   Clear
9:15 PM 17.6 °F 7.3 °F 12.2 °F 79% 29.81 in 10.0 mi SW 8.1 mph - N/A   Clear
9:35 PM 14.0 °F - 8.6 °F 79% 29.81 in 10.0 mi Calm Calm - N/A   Clear
9:55 PM 15.8 °F 8.6 °F 10.4 °F 79% 29.81 in 10.0 mi SW 4.6 mph - N/A   Clear
10:15 PM 17.6 °F 10.7 °F 12.2 °F 79% 29.80 in 10.0 mi SW 4.6 mph - N/A   Clear
10:35 PM 14.0 °F 5.1 °F 12.2 °F 93% 29.80 in 10.0 mi South 5.8 mph - N/A   Clear
10:55 PM 14.0 °F 6.5 °F 10.4 °F 86% 29.79 in 10.0 mi SSW 4.6 mph - N/A   Clear
11:15 PM 12.2 °F 4.3 °F 10.4 °F 92% 29.78 in 10.0 mi SSW 4.6 mph - N/A   Clear
11:35 PM 10.4 °F - 5.0 °F 79% 29.79 in 10.0 mi Calm Calm - N/A   Clear
11:55 PM 10.4 °F 4.0 °F 8.6 °F 92% 29.78 in 9.0 mi SE 3.5 mph - N/A   Clear